sensor_id;sensor_type;location;lat;lon;timestamp;temperature;humidity
20446;DHT22;10382;49.140;9.234;2023-08-06T00:00:30;17.40;99.90
20446;DHT22;10382;49.140;9.234;2023-08-06T00:02:57;17.50;99.90
20446;DHT22;10382;49.140;9.234;2023-08-06T00:05:23;17.60;99.90
20446;DHT22;10382;49.140;9.234;2023-08-06T00:07:51;17.70;99.90
20446;DHT22;10382;49.140;9.234;2023-08-06T00:10:17;17.80;99.90
20446;DHT22;10382;49.140;9.234;2023-08-06T00:12:46;17.90;99.90
20446;DHT22;10382;49.140;9.234;2023-08-06T00:15:13;18.00;99.90
20446;DHT22;10382;49.140;9.234;2023-08-06T00:17:40;18.10;99.90
20446;DHT22;10382;49.140;9.234;2023-08-06T00:20:07;18.10;99.90
20446;DHT22;10382;49.140;9.234;2023-08-06T00:22:36;18.10;99.90
20446;DHT22;10382;49.140;9.234;2023-08-06T00:25:03;18.10;99.90
20446;DHT22;10382;49.140;9.234;2023-08-06T00:27:30;18.20;99.90
20446;DHT22;10382;49.140;9.234;2023-08-06T00:29:59;18.10;99.90
20446;DHT22;10382;49.140;9.234;2023-08-06T00:32:26;18.10;99.90
20446;DHT22;10382;49.140;9.234;2023-08-06T00:34:53;18.00;99.90
20446;DHT22;10382;49.140;9.234;2023-08-06T00:37:20;17.90;99.90
20446;DHT22;10382;49.140;9.234;2023-08-06T00:39:46;17.70;99.90
20446;DHT22;10382;49.140;9.234;2023-08-06T00:42:13;17.50;99.90
20446;DHT22;10382;49.140;9.234;2023-08-06T00:44:41;17.40;99.90
20446;DHT22;10382;49.140;9.234;2023-08-06T00:47:10;17.40;99.90
20446;DHT22;10382;49.140;9.234;2023-08-06T00:49:37;17.40;99.90
20446;DHT22;10382;49.140;9.234;2023-08-06T00:52:05;17.40;99.90
20446;DHT22;10382;49.140;9.234;2023-08-06T00:54:35;17.40;99.90
20446;DHT22;10382;49.140;9.234;2023-08-06T00:57:04;17.50;99.90
20446;DHT22;10382;49.140;9.234;2023-08-06T00:59:31;17.60;99.90
20446;DHT22;10382;49.140;9.234;2023-08-06T01:01:58;17.60;99.90
20446;DHT22;10382;49.140;9.234;2023-08-06T01:04:26;17.60;99.90
20446;DHT22;10382;49.140;9.234;2023-08-06T01:07:02;17.50;99.90
20446;DHT22;10382;49.140;9.234;2023-08-06T01:09:36;17.60;99.90
20446;DHT22;10382;49.140;9.234;2023-08-06T01:12:20;17.60;99.90
20446;DHT22;10382;49.140;9.234;2023-08-06T01:15:00;17.70;99.90
20446;DHT22;10382;49.140;9.234;2023-08-06T01:17:29;17.80;99.90
20446;DHT22;10382;49.140;9.234;2023-08-06T01:19:57;17.90;99.90
20446;DHT22;10382;49.140;9.234;2023-08-06T01:22:26;17.90;99.90
20446;DHT22;10382;49.140;9.234;2023-08-06T01:24:52;18.00;99.90
20446;DHT22;10382;49.140;9.234;2023-08-06T01:27:25;17.90;99.90
20446;DHT22;10382;49.140;9.234;2023-08-06T01:29:59;17.90;99.90
20446;DHT22;10382;49.140;9.234;2023-08-06T01:32:31;17.80;99.90
20446;DHT22;10382;49.140;9.234;2023-08-06T01:35:02;17.80;99.90
20446;DHT22;10382;49.140;9.234;2023-08-06T01:37:31;17.70;99.90
20446;DHT22;10382;49.140;9.234;2023-08-06T01:39:59;17.70;99.90
20446;DHT22;10382;49.140;9.234;2023-08-06T01:42:25;17.60;99.90
20446;DHT22;10382;49.140;9.234;2023-08-06T01:44:52;17.50;99.90
20446;DHT22;10382;49.140;9.234;2023-08-06T01:47:19;17.60;99.90
20446;DHT22;10382;49.140;9.234;2023-08-06T01:49:46;17.50;99.90
20446;DHT22;10382;49.140;9.234;2023-08-06T01:52:13;17.40;99.90
20446;DHT22;10382;49.140;9.234;2023-08-06T01:54:41;17.30;99.90
20446;DHT22;10382;49.140;9.234;2023-08-06T01:57:20;17.30;99.90
20446;DHT22;10382;49.140;9.234;2023-08-06T01:59:47;17.30;99.90
20446;DHT22;10382;49.140;9.234;2023-08-06T02:02:14;17.30;99.90
20446;DHT22;10382;49.140;9.234;2023-08-06T02:04:41;17.30;99.90
20446;DHT22;10382;49.140;9.234;2023-08-06T02:07:08;17.30;99.90
20446;DHT22;10382;49.140;9.234;2023-08-06T02:09:35;17.20;99.90
20446;DHT22;10382;49.140;9.234;2023-08-06T02:12:04;17.30;99.90
20446;DHT22;10382;49.140;9.234;2023-08-06T02:14:31;17.20;99.90
20446;DHT22;10382;49.140;9.234;2023-08-06T02:16:58;17.20;99.90
20446;DHT22;10382;49.140;9.234;2023-08-06T02:19:24;17.20;99.90
20446;DHT22;10382;49.140;9.234;2023-08-06T02:21:51;17.10;99.90
20446;DHT22;10382;49.140;9.234;2023-08-06T02:24:18;17.20;99.90
20446;DHT22;10382;49.140;9.234;2023-08-06T02:26:45;17.10;99.90
20446;DHT22;10382;49.140;9.234;2023-08-06T02:29:15;17.10;99.90
20446;DHT22;10382;49.140;9.234;2023-08-06T02:31:42;17.10;99.90
20446;DHT22;10382;49.140;9.234;2023-08-06T02:34:09;17.10;99.90
20446;DHT22;10382;49.140;9.234;2023-08-06T02:36:36;17.00;99.90
20446;DHT22;10382;49.140;9.234;2023-08-06T02:39:03;17.10;99.90
20446;DHT22;10382;49.140;9.234;2023-08-06T02:41:30;17.10;99.90
20446;DHT22;10382;49.140;9.234;2023-08-06T02:43:56;17.10;99.90
20446;DHT22;10382;49.140;9.234;2023-08-06T02:46:25;17.10;99.90
20446;DHT22;10382;49.140;9.234;2023-08-06T02:48:51;17.10;99.90
20446;DHT22;10382;49.140;9.234;2023-08-06T02:51:18;17.10;99.90
20446;DHT22;10382;49.140;9.234;2023-08-06T02:53:45;17.10;99.90
20446;DHT22;10382;49.140;9.234;2023-08-06T02:56:14;17.10;99.90
20446;DHT22;10382;49.140;9.234;2023-08-06T02:58:41;17.10;99.90
20446;DHT22;10382;49.140;9.234;2023-08-06T03:01:07;17.00;99.90
20446;DHT22;10382;49.140;9.234;2023-08-06T03:03:36;17.10;99.90
20446;DHT22;10382;49.140;9.234;2023-08-06T03:06:02;17.10;99.90
20446;DHT22;10382;49.140;9.234;2023-08-06T03:08:29;17.10;99.90
20446;DHT22;10382;49.140;9.234;2023-08-06T03:10:56;17.10;99.90
20446;DHT22;10382;49.140;9.234;2023-08-06T03:13:23;17.10;99.90
20446;DHT22;10382;49.140;9.234;2023-08-06T03:15:54;17.10;99.90
20446;DHT22;10382;49.140;9.234;2023-08-06T03:18:21;17.10;99.90
20446;DHT22;10382;49.140;9.234;2023-08-06T03:20:49;17.10;99.90
20446;DHT22;10382;49.140;9.234;2023-08-06T03:23:16;17.10;99.90
20446;DHT22;10382;49.140;9.234;2023-08-06T03:25:43;17.10;99.90
20446;DHT22;10382;49.140;9.234;2023-08-06T03:28:10;17.10;99.90
20446;DHT22;10382;49.140;9.234;2023-08-06T03:30:37;17.20;99.90
20446;DHT22;10382;49.140;9.234;2023-08-06T03:33:04;17.10;99.90
20446;DHT22;10382;49.140;9.234;2023-08-06T03:35:31;17.10;99.90
20446;DHT22;10382;49.140;9.234;2023-08-06T03:37:59;17.00;99.90
20446;DHT22;10382;49.140;9.234;2023-08-06T03:40:26;17.10;99.90
20446;DHT22;10382;49.140;9.234;2023-08-06T03:42:53;17.10;99.90
20446;DHT22;10382;49.140;9.234;2023-08-06T03:45:19;17.10;99.90
20446;DHT22;10382;49.140;9.234;2023-08-06T03:47:46;17.20;99.90
20446;DHT22;10382;49.140;9.234;2023-08-06T03:50:13;17.20;99.90
20446;DHT22;10382;49.140;9.234;2023-08-06T03:52:40;17.10;99.90
20446;DHT22;10382;49.140;9.234;2023-08-06T03:55:08;17.00;99.90
20446;DHT22;10382;49.140;9.234;2023-08-06T03:57:35;17.00;99.90
20446;DHT22;10382;49.140;9.234;2023-08-06T04:00:02;17.00;99.90
20446;DHT22;10382;49.140;9.234;2023-08-06T04:02:29;17.10;99.90
20446;DHT22;10382;49.140;9.234;2023-08-06T04:04:56;17.20;99.90
20446;DHT22;10382;49.140;9.234;2023-08-06T04:07:24;17.30;99.90
20446;DHT22;10382;49.140;9.234;2023-08-06T04:09:53;17.40;99.90
20446;DHT22;10382;49.140;9.234;2023-08-06T04:12:22;17.40;99.90
20446;DHT22;10382;49.140;9.234;2023-08-06T04:14:50;17.30;99.90
20446;DHT22;10382;49.140;9.234;2023-08-06T04:17:17;17.30;99.90
20446;DHT22;10382;49.140;9.234;2023-08-06T04:19:46;17.10;99.90
20446;DHT22;10382;49.140;9.234;2023-08-06T04:22:13;17.10;99.90
20446;DHT22;10382;49.140;9.234;2023-08-06T04:24:41;17.00;99.90
20446;DHT22;10382;49.140;9.234;2023-08-06T04:27:08;16.90;99.90
20446;DHT22;10382;49.140;9.234;2023-08-06T04:29:37;16.90;99.90
20446;DHT22;10382;49.140;9.234;2023-08-06T04:32:06;16.90;99.90
20446;DHT22;10382;49.140;9.234;2023-08-06T04:34:33;16.90;99.90
20446;DHT22;10382;49.140;9.234;2023-08-06T04:37:00;16.80;99.90
20446;DHT22;10382;49.140;9.234;2023-08-06T04:39:28;16.70;99.90
20446;DHT22;10382;49.140;9.234;2023-08-06T04:41:55;16.50;99.90
20446;DHT22;10382;49.140;9.234;2023-08-06T04:44:22;16.50;99.90
20446;DHT22;10382;49.140;9.234;2023-08-06T04:46:50;16.50;99.90
20446;DHT22;10382;49.140;9.234;2023-08-06T04:49:17;16.50;99.90
20446;DHT22;10382;49.140;9.234;2023-08-06T04:51:44;16.40;99.90
20446;DHT22;10382;49.140;9.234;2023-08-06T04:54:11;16.30;99.90
20446;DHT22;10382;49.140;9.234;2023-08-06T04:56:37;16.20;99.90
20446;DHT22;10382;49.140;9.234;2023-08-06T04:59:04;16.10;99.90
20446;DHT22;10382;49.140;9.234;2023-08-06T05:01:31;16.10;99.90
20446;DHT22;10382;49.140;9.234;2023-08-06T05:03:59;16.10;99.90
20446;DHT22;10382;49.140;9.234;2023-08-06T05:06:26;16.20;99.90
20446;DHT22;10382;49.140;9.234;2023-08-06T05:08:53;16.20;99.90
20446;DHT22;10382;49.140;9.234;2023-08-06T05:11:20;16.40;99.90
20446;DHT22;10382;49.140;9.234;2023-08-06T05:13:47;16.40;99.90
20446;DHT22;10382;49.140;9.234;2023-08-06T05:16:13;16.30;99.90
20446;DHT22;10382;49.140;9.234;2023-08-06T05:18:40;16.30;99.90
20446;DHT22;10382;49.140;9.234;2023-08-06T05:21:09;16.30;99.90
20446;DHT22;10382;49.140;9.234;2023-08-06T05:23:36;16.10;99.90
20446;DHT22;10382;49.140;9.234;2023-08-06T05:26:02;16.10;99.90
20446;DHT22;10382;49.140;9.234;2023-08-06T05:28:29;16.00;99.90
20446;DHT22;10382;49.140;9.234;2023-08-06T05:30:56;16.00;99.90
20446;DHT22;10382;49.140;9.234;2023-08-06T05:33:23;16.00;99.90
20446;DHT22;10382;49.140;9.234;2023-08-06T05:35:50;16.10;99.90
20446;DHT22;10382;49.140;9.234;2023-08-06T05:38:18;16.10;99.90
20446;DHT22;10382;49.140;9.234;2023-08-06T05:40:45;16.20;99.90
20446;DHT22;10382;49.140;9.234;2023-08-06T05:43:13;16.30;99.90
20446;DHT22;10382;49.140;9.234;2023-08-06T05:45:43;16.30;99.90
20446;DHT22;10382;49.140;9.234;2023-08-06T05:48:10;16.30;99.90
20446;DHT22;10382;49.140;9.234;2023-08-06T05:50:37;16.40;99.90
20446;DHT22;10382;49.140;9.234;2023-08-06T05:53:04;16.40;99.90
20446;DHT22;10382;49.140;9.234;2023-08-06T05:55:32;16.40;99.90
20446;DHT22;10382;49.140;9.234;2023-08-06T05:57:59;16.40;99.90
20446;DHT22;10382;49.140;9.234;2023-08-06T06:00:26;16.50;99.90
20446;DHT22;10382;49.140;9.234;2023-08-06T06:02:53;16.50;99.90
20446;DHT22;10382;49.140;9.234;2023-08-06T06:05:19;16.60;99.90
20446;DHT22;10382;49.140;9.234;2023-08-06T06:07:46;16.70;99.90
20446;DHT22;10382;49.140;9.234;2023-08-06T06:10:13;16.60;99.90
20446;DHT22;10382;49.140;9.234;2023-08-06T06:12:41;16.70;99.90
20446;DHT22;10382;49.140;9.234;2023-08-06T06:15:09;16.70;99.90
20446;DHT22;10382;49.140;9.234;2023-08-06T06:17:36;16.60;99.90
20446;DHT22;10382;49.140;9.234;2023-08-06T06:20:03;16.70;99.90
20446;DHT22;10382;49.140;9.234;2023-08-06T06:22:30;16.60;99.90
20446;DHT22;10382;49.140;9.234;2023-08-06T06:24:57;16.60;99.90
20446;DHT22;10382;49.140;9.234;2023-08-06T06:27:24;16.60;99.90
20446;DHT22;10382;49.140;9.234;2023-08-06T06:29:52;16.60;99.90
20446;DHT22;10382;49.140;9.234;2023-08-06T06:32:20;16.60;99.90
20446;DHT22;10382;49.140;9.234;2023-08-06T06:34:47;16.70;99.90
20446;DHT22;10382;49.140;9.234;2023-08-06T06:37:14;16.80;99.90
20446;DHT22;10382;49.140;9.234;2023-08-06T06:39:41;16.80;99.90
20446;DHT22;10382;49.140;9.234;2023-08-06T06:42:07;16.70;99.90
20446;DHT22;10382;49.140;9.234;2023-08-06T06:44:34;16.70;99.90
20446;DHT22;10382;49.140;9.234;2023-08-06T06:47:03;16.70;99.90
20446;DHT22;10382;49.140;9.234;2023-08-06T06:49:30;16.60;99.90
20446;DHT22;10382;49.140;9.234;2023-08-06T06:51:57;16.70;99.90
20446;DHT22;10382;49.140;9.234;2023-08-06T06:54:23;16.70;99.90
20446;DHT22;10382;49.140;9.234;2023-08-06T06:56:50;16.60;99.90
20446;DHT22;10382;49.140;9.234;2023-08-06T06:59:17;16.40;99.90
20446;DHT22;10382;49.140;9.234;2023-08-06T07:01:44;16.40;99.90
20446;DHT22;10382;49.140;9.234;2023-08-06T07:04:12;16.50;99.90
20446;DHT22;10382;49.140;9.234;2023-08-06T07:06:39;16.60;99.90
20446;DHT22;10382;49.140;9.234;2023-08-06T07:09:06;16.60;99.90
20446;DHT22;10382;49.140;9.234;2023-08-06T07:11:32;16.50;99.90
20446;DHT22;10382;49.140;9.234;2023-08-06T07:13:59;16.30;99.90
20446;DHT22;10382;49.140;9.234;2023-08-06T07:16:27;16.30;99.90
20446;DHT22;10382;49.140;9.234;2023-08-06T07:18:54;16.20;99.90
20446;DHT22;10382;49.140;9.234;2023-08-06T07:21:22;16.10;99.90
20446;DHT22;10382;49.140;9.234;2023-08-06T07:23:49;16.00;99.90
20446;DHT22;10382;49.140;9.234;2023-08-06T07:26:16;16.10;99.90
20446;DHT22;10382;49.140;9.234;2023-08-06T07:28:43;16.20;99.90
20446;DHT22;10382;49.140;9.234;2023-08-06T07:31:10;16.30;99.90
20446;DHT22;10382;49.140;9.234;2023-08-06T07:33:37;16.40;99.90
20446;DHT22;10382;49.140;9.234;2023-08-06T07:36:08;16.30;99.90
20446;DHT22;10382;49.140;9.234;2023-08-06T07:38:37;16.20;99.90
20446;DHT22;10382;49.140;9.234;2023-08-06T07:41:04;16.30;99.90
20446;DHT22;10382;49.140;9.234;2023-08-06T07:43:31;16.30;99.90
20446;DHT22;10382;49.140;9.234;2023-08-06T07:45:58;16.40;99.90
20446;DHT22;10382;49.140;9.234;2023-08-06T07:48:26;16.30;99.90
20446;DHT22;10382;49.140;9.234;2023-08-06T07:50:52;16.30;99.90
20446;DHT22;10382;49.140;9.234;2023-08-06T07:53:20;16.30;99.90
20446;DHT22;10382;49.140;9.234;2023-08-06T07:55:50;16.30;99.90
20446;DHT22;10382;49.140;9.234;2023-08-06T07:58:17;16.30;99.90
20446;DHT22;10382;49.140;9.234;2023-08-06T08:00:44;16.30;99.90
20446;DHT22;10382;49.140;9.234;2023-08-06T08:03:11;16.20;99.90
20446;DHT22;10382;49.140;9.234;2023-08-06T08:05:39;16.20;99.90
20446;DHT22;10382;49.140;9.234;2023-08-06T08:08:06;16.30;99.90
20446;DHT22;10382;49.140;9.234;2023-08-06T08:10:33;16.30;99.90
20446;DHT22;10382;49.140;9.234;2023-08-06T08:13:03;16.30;99.90
20446;DHT22;10382;49.140;9.234;2023-08-06T08:15:31;16.40;99.90
20446;DHT22;10382;49.140;9.234;2023-08-06T08:17:58;16.50;99.90
20446;DHT22;10382;49.140;9.234;2023-08-06T08:20:26;16.60;99.90
20446;DHT22;10382;49.140;9.234;2023-08-06T08:22:57;16.50;99.90
20446;DHT22;10382;49.140;9.234;2023-08-06T08:25:24;16.40;99.90
20446;DHT22;10382;49.140;9.234;2023-08-06T08:27:52;16.50;99.90
20446;DHT22;10382;49.140;9.234;2023-08-06T08:30:20;16.50;99.90
20446;DHT22;10382;49.140;9.234;2023-08-06T08:32:47;16.50;99.90
20446;DHT22;10382;49.140;9.234;2023-08-06T08:35:14;16.60;99.90
20446;DHT22;10382;49.140;9.234;2023-08-06T08:37:41;16.70;99.90
20446;DHT22;10382;49.140;9.234;2023-08-06T08:40:09;16.80;99.90
20446;DHT22;10382;49.140;9.234;2023-08-06T08:42:36;17.00;99.90
20446;DHT22;10382;49.140;9.234;2023-08-06T08:45:05;17.10;99.90
20446;DHT22;10382;49.140;9.234;2023-08-06T08:47:36;17.30;99.90
20446;DHT22;10382;49.140;9.234;2023-08-06T08:50:06;17.50;99.90
20446;DHT22;10382;49.140;9.234;2023-08-06T08:52:33;17.50;99.90
20446;DHT22;10382;49.140;9.234;2023-08-06T08:55:02;17.50;99.90
20446;DHT22;10382;49.140;9.234;2023-08-06T08:57:29;17.40;99.90
20446;DHT22;10382;49.140;9.234;2023-08-06T08:59:56;17.30;99.90
20446;DHT22;10382;49.140;9.234;2023-08-06T09:02:25;17.30;99.90
20446;DHT22;10382;49.140;9.234;2023-08-06T09:04:56;17.30;99.90
20446;DHT22;10382;49.140;9.234;2023-08-06T09:07:25;17.30;99.90
20446;DHT22;10382;49.140;9.234;2023-08-06T09:09:53;17.30;99.90
20446;DHT22;10382;49.140;9.234;2023-08-06T09:12:21;17.40;99.90
20446;DHT22;10382;49.140;9.234;2023-08-06T09:14:48;17.40;99.90
20446;DHT22;10382;49.140;9.234;2023-08-06T09:17:16;17.30;99.90
20446;DHT22;10382;49.140;9.234;2023-08-06T09:19:45;17.20;99.90
20446;DHT22;10382;49.140;9.234;2023-08-06T09:22:15;17.10;99.90
20446;DHT22;10382;49.140;9.234;2023-08-06T09:24:43;17.10;99.90
20446;DHT22;10382;49.140;9.234;2023-08-06T09:27:13;17.10;99.90
20446;DHT22;10382;49.140;9.234;2023-08-06T09:29:41;17.20;99.90
20446;DHT22;10382;49.140;9.234;2023-08-06T09:32:09;17.20;99.90
20446;DHT22;10382;49.140;9.234;2023-08-06T09:34:38;17.20;99.90
20446;DHT22;10382;49.140;9.234;2023-08-06T09:37:05;17.30;99.90
20446;DHT22;10382;49.140;9.234;2023-08-06T09:39:34;17.20;99.90
20446;DHT22;10382;49.140;9.234;2023-08-06T09:42:01;17.20;99.90
20446;DHT22;10382;49.140;9.234;2023-08-06T09:44:33;17.00;99.90
20446;DHT22;10382;49.140;9.234;2023-08-06T09:47:01;17.10;99.90
20446;DHT22;10382;49.140;9.234;2023-08-06T09:49:40;17.10;99.90
20446;DHT22;10382;49.140;9.234;2023-08-06T09:52:10;17.30;99.90
20446;DHT22;10382;49.140;9.234;2023-08-06T09:54:39;17.50;99.90
20446;DHT22;10382;49.140;9.234;2023-08-06T09:57:05;17.50;99.90
20446;DHT22;10382;49.140;9.234;2023-08-06T09:59:32;17.50;99.90
20446;DHT22;10382;49.140;9.234;2023-08-06T10:02:00;17.50;99.90
20446;DHT22;10382;49.140;9.234;2023-08-06T10:04:29;17.60;99.90
20446;DHT22;10382;49.140;9.234;2023-08-06T10:06:56;17.60;99.90
20446;DHT22;10382;49.140;9.234;2023-08-06T10:09:24;17.40;99.90
20446;DHT22;10382;49.140;9.234;2023-08-06T10:11:52;17.30;99.90
20446;DHT22;10382;49.140;9.234;2023-08-06T10:14:24;17.30;99.90
20446;DHT22;10382;49.140;9.234;2023-08-06T10:16:52;17.20;99.90
20446;DHT22;10382;49.140;9.234;2023-08-06T10:19:20;17.20;99.90
20446;DHT22;10382;49.140;9.234;2023-08-06T10:22:07;17.30;99.90
20446;DHT22;10382;49.140;9.234;2023-08-06T10:24:49;17.40;99.90
20446;DHT22;10382;49.140;9.234;2023-08-06T10:27:21;17.30;99.90
20446;DHT22;10382;49.140;9.234;2023-08-06T10:29:48;17.20;99.90
20446;DHT22;10382;49.140;9.234;2023-08-06T10:32:16;17.10;99.90
20446;DHT22;10382;49.140;9.234;2023-08-06T10:34:55;17.10;99.90
20446;DHT22;10382;49.140;9.234;2023-08-06T10:37:23;17.00;99.90
20446;DHT22;10382;49.140;9.234;2023-08-06T10:39:50;16.90;99.90
20446;DHT22;10382;49.140;9.234;2023-08-06T10:42:27;16.70;99.90
20446;DHT22;10382;49.140;9.234;2023-08-06T10:45:11;16.60;99.90
20446;DHT22;10382;49.140;9.234;2023-08-06T10:47:38;16.70;99.90
20446;DHT22;10382;49.140;9.234;2023-08-06T10:50:07;16.60;99.90
20446;DHT22;10382;49.140;9.234;2023-08-06T10:52:34;16.50;99.90
20446;DHT22;10382;49.140;9.234;2023-08-06T10:55:01;16.40;99.90
20446;DHT22;10382;49.140;9.234;2023-08-06T10:57:29;16.20;99.90
20446;DHT22;10382;49.140;9.234;2023-08-06T10:59:56;16.10;99.90
20446;DHT22;10382;49.140;9.234;2023-08-06T11:02:23;16.20;99.90
20446;DHT22;10382;49.140;9.234;2023-08-06T11:04:49;16.30;99.90
20446;DHT22;10382;49.140;9.234;2023-08-06T11:07:17;16.30;99.90
20446;DHT22;10382;49.140;9.234;2023-08-06T11:09:44;16.40;99.90
20446;DHT22;10382;49.140;9.234;2023-08-06T11:12:10;16.30;99.90
20446;DHT22;10382;49.140;9.234;2023-08-06T11:14:39;16.30;99.90
20446;DHT22;10382;49.140;9.234;2023-08-06T11:17:06;16.30;99.90
20446;DHT22;10382;49.140;9.234;2023-08-06T11:19:33;16.30;99.90
20446;DHT22;10382;49.140;9.234;2023-08-06T11:22:00;16.20;99.90
20446;DHT22;10382;49.140;9.234;2023-08-06T11:24:28;16.20;99.90
20446;DHT22;10382;49.140;9.234;2023-08-06T11:26:54;16.20;99.90
20446;DHT22;10382;49.140;9.234;2023-08-06T11:29:21;16.20;99.90
20446;DHT22;10382;49.140;9.234;2023-08-06T11:31:51;16.20;99.90
20446;DHT22;10382;49.140;9.234;2023-08-06T11:34:17;16.30;99.90
20446;DHT22;10382;49.140;9.234;2023-08-06T11:36:44;16.20;99.90
20446;DHT22;10382;49.140;9.234;2023-08-06T11:39:11;16.20;99.90
20446;DHT22;10382;49.140;9.234;2023-08-06T11:41:38;16.10;99.90
20446;DHT22;10382;49.140;9.234;2023-08-06T11:44:06;16.10;99.90
20446;DHT22;10382;49.140;9.234;2023-08-06T11:46:54;16.10;99.90
20446;DHT22;10382;49.140;9.234;2023-08-06T11:49:37;16.10;99.90
20446;DHT22;10382;49.140;9.234;2023-08-06T11:52:09;15.90;99.90
20446;DHT22;10382;49.140;9.234;2023-08-06T11:54:36;15.80;99.90
20446;DHT22;10382;49.140;9.234;2023-08-06T11:57:04;15.70;99.90
20446;DHT22;10382;49.140;9.234;2023-08-06T11:59:31;15.60;99.90
20446;DHT22;10382;49.140;9.234;2023-08-06T12:02:01;15.60;99.90
20446;DHT22;10382;49.140;9.234;2023-08-06T12:04:30;15.70;99.90
20446;DHT22;10382;49.140;9.234;2023-08-06T12:07:05;15.60;99.90
20446;DHT22;10382;49.140;9.234;2023-08-06T12:09:33;15.50;99.90
20446;DHT22;10382;49.140;9.234;2023-08-06T12:12:01;15.40;99.90
20446;DHT22;10382;49.140;9.234;2023-08-06T12:14:28;15.40;99.90
20446;DHT22;10382;49.140;9.234;2023-08-06T12:16:55;15.30;99.90
20446;DHT22;10382;49.140;9.234;2023-08-06T12:19:23;15.30;99.90
20446;DHT22;10382;49.140;9.234;2023-08-06T12:21:51;15.40;99.90
20446;DHT22;10382;49.140;9.234;2023-08-06T12:24:18;15.30;99.90
20446;DHT22;10382;49.140;9.234;2023-08-06T12:26:45;15.30;99.90
20446;DHT22;10382;49.140;9.234;2023-08-06T12:29:12;15.30;99.90
20446;DHT22;10382;49.140;9.234;2023-08-06T12:31:38;15.30;99.90
20446;DHT22;10382;49.140;9.234;2023-08-06T12:34:05;15.30;99.90
20446;DHT22;10382;49.140;9.234;2023-08-06T12:36:33;15.30;99.90
20446;DHT22;10382;49.140;9.234;2023-08-06T12:39:00;15.40;99.90
20446;DHT22;10382;49.140;9.234;2023-08-06T12:41:27;15.40;99.90
20446;DHT22;10382;49.140;9.234;2023-08-06T12:43:54;15.40;99.90
20446;DHT22;10382;49.140;9.234;2023-08-06T12:46:21;15.40;99.90
20446;DHT22;10382;49.140;9.234;2023-08-06T12:48:47;15.40;99.90
20446;DHT22;10382;49.140;9.234;2023-08-06T12:51:14;15.60;99.90
20446;DHT22;10382;49.140;9.234;2023-08-06T12:53:43;15.60;99.90
20446;DHT22;10382;49.140;9.234;2023-08-06T12:56:10;15.70;99.90
20446;DHT22;10382;49.140;9.234;2023-08-06T12:58:37;15.80;99.90
20446;DHT22;10382;49.140;9.234;2023-08-06T13:01:05;15.80;99.90
20446;DHT22;10382;49.140;9.234;2023-08-06T13:03:32;15.90;99.90
20446;DHT22;10382;49.140;9.234;2023-08-06T13:05:59;15.90;99.90
20446;DHT22;10382;49.140;9.234;2023-08-06T13:08:25;15.90;99.90
20446;DHT22;10382;49.140;9.234;2023-08-06T13:10:54;15.90;99.90
20446;DHT22;10382;49.140;9.234;2023-08-06T13:13:21;15.80;99.90
20446;DHT22;10382;49.140;9.234;2023-08-06T13:15:47;15.80;99.90
20446;DHT22;10382;49.140;9.234;2023-08-06T13:18:14;15.80;99.90
20446;DHT22;10382;49.140;9.234;2023-08-06T13:20:41;15.70;99.90
20446;DHT22;10382;49.140;9.234;2023-08-06T13:23:08;15.70;99.90
20446;DHT22;10382;49.140;9.234;2023-08-06T13:25:35;15.70;99.90
20446;DHT22;10382;49.140;9.234;2023-08-06T13:28:04;15.70;99.90
20446;DHT22;10382;49.140;9.234;2023-08-06T13:30:31;15.70;99.90
20446;DHT22;10382;49.140;9.234;2023-08-06T13:32:58;15.60;99.90
20446;DHT22;10382;49.140;9.234;2023-08-06T13:35:25;15.70;99.90
20446;DHT22;10382;49.140;9.234;2023-08-06T13:37:51;15.80;99.90
20446;DHT22;10382;49.140;9.234;2023-08-06T13:40:19;15.80;99.90
20446;DHT22;10382;49.140;9.234;2023-08-06T13:42:46;16.00;99.90
20446;DHT22;10382;49.140;9.234;2023-08-06T13:45:14;16.10;99.90
20446;DHT22;10382;49.140;9.234;2023-08-06T13:47:42;16.40;99.90
20446;DHT22;10382;49.140;9.234;2023-08-06T13:50:09;16.50;99.90
20446;DHT22;10382;49.140;9.234;2023-08-06T13:52:36;16.50;99.90
20446;DHT22;10382;49.140;9.234;2023-08-06T13:55:03;16.40;99.90
20446;DHT22;10382;49.140;9.234;2023-08-06T13:57:30;16.40;99.90
20446;DHT22;10382;49.140;9.234;2023-08-06T13:59:57;16.40;99.90
20446;DHT22;10382;49.140;9.234;2023-08-06T14:02:25;16.30;99.90
20446;DHT22;10382;49.140;9.234;2023-08-06T14:04:52;16.20;99.90
20446;DHT22;10382;49.140;9.234;2023-08-06T14:07:19;16.20;99.90
20446;DHT22;10382;49.140;9.234;2023-08-06T14:09:46;16.20;99.90
20446;DHT22;10382;49.140;9.234;2023-08-06T14:12:14;16.20;99.90
20446;DHT22;10382;49.140;9.234;2023-08-06T14:14:41;16.20;99.90
20446;DHT22;10382;49.140;9.234;2023-08-06T14:17:08;16.20;99.90
20446;DHT22;10382;49.140;9.234;2023-08-06T14:19:36;16.10;99.90
20446;DHT22;10382;49.140;9.234;2023-08-06T14:22:03;16.10;99.90
20446;DHT22;10382;49.140;9.234;2023-08-06T14:24:30;16.10;99.90
20446;DHT22;10382;49.140;9.234;2023-08-06T14:26:57;16.00;99.90
20446;DHT22;10382;49.140;9.234;2023-08-06T14:29:24;16.10;99.90
20446;DHT22;10382;49.140;9.234;2023-08-06T14:31:51;16.20;99.90
20446;DHT22;10382;49.140;9.234;2023-08-06T14:34:18;16.30;99.90
20446;DHT22;10382;49.140;9.234;2023-08-06T14:36:46;16.40;99.90
20446;DHT22;10382;49.140;9.234;2023-08-06T14:39:13;16.50;99.90
20446;DHT22;10382;49.140;9.234;2023-08-06T14:41:40;16.60;99.90
20446;DHT22;10382;49.140;9.234;2023-08-06T14:44:07;16.70;99.90
20446;DHT22;10382;49.140;9.234;2023-08-06T14:46:34;16.80;99.90
20446;DHT22;10382;49.140;9.234;2023-08-06T14:49:01;16.90;99.90
20446;DHT22;10382;49.140;9.234;2023-08-06T14:51:28;17.10;99.90
20446;DHT22;10382;49.140;9.234;2023-08-06T14:53:56;17.20;99.90
20446;DHT22;10382;49.140;9.234;2023-08-06T14:56:23;17.30;99.90
20446;DHT22;10382;49.140;9.234;2023-08-06T14:58:50;17.30;99.90
20446;DHT22;10382;49.140;9.234;2023-08-06T15:01:16;17.50;99.90
20446;DHT22;10382;49.140;9.234;2023-08-06T15:03:43;17.60;99.90
20446;DHT22;10382;49.140;9.234;2023-08-06T15:06:10;17.60;99.90
20446;DHT22;10382;49.140;9.234;2023-08-06T15:08:37;17.40;99.90
20446;DHT22;10382;49.140;9.234;2023-08-06T15:11:05;17.30;99.90
20446;DHT22;10382;49.140;9.234;2023-08-06T15:13:32;17.30;99.90
20446;DHT22;10382;49.140;9.234;2023-08-06T15:15:59;17.20;99.90
20446;DHT22;10382;49.140;9.234;2023-08-06T15:18:26;17.20;99.90
20446;DHT22;10382;49.140;9.234;2023-08-06T15:20:52;17.20;99.90
20446;DHT22;10382;49.140;9.234;2023-08-06T15:23:19;17.30;99.90
20446;DHT22;10382;49.140;9.234;2023-08-06T15:25:46;17.40;99.90
20446;DHT22;10382;49.140;9.234;2023-08-06T15:28:15;17.40;99.90
20446;DHT22;10382;49.140;9.234;2023-08-06T15:30:49;17.30;99.90
20446;DHT22;10382;49.140;9.234;2023-08-06T15:33:17;17.20;99.90